Time;durP1;ratioP1;P1;durP2;ratioP2;P2;SDS_P1;SDS_P2;PMS_P1;PMS_P2;Temp;Humidity;BMP_temperature;BMP_pressure;BME280_temperature;BME280_humidity;BME280_pressure;Samples;Min_cycle;Max_cycle;Signal;HPM_P1;HPM_P2
2021/05/08 00:00:52;;;;;;;17.30;8.52;;;;;;;;;;5063010;28;20407;-73
2021/05/08 00:03:18;;;;;;;18.20;9.13;;;;;;;;;;5057447;28;20033;-73
2021/05/08 00:05:46;;;;;;;16.25;9.13;;;;;;;;;;5070678;28;20137;-72
2021/05/08 00:08:12;;;;;;;18.88;9.60;;;;;;;;;;5067975;28;20616;-73
2021/05/08 00:10:38;;;;;;;14.77;8.90;;;;;;;;;;5055244;28;20919;-73
2021/05/08 00:13:04;;;;;;;16.92;8.80;;;;;;;;;;5062067;28;20513;-73
2021/05/08 00:15:30;;;;;;;16.83;9.80;;;;;;;;;;5065877;28;20612;-73
2021/05/08 00:17:56;;;;;;;20.10;10.20;;;;;;;;;;5062410;28;20086;-73
2021/05/08 00:20:22;;;;;;;15.48;8.98;;;;;;;;;;5054772;28;20631;-73
2021/05/08 00:22:48;;;;;;;18.85;9.50;;;;;;;;;;5062704;28;20025;-73
2021/05/08 00:25:14;;;;;;;15.52;8.88;;;;;;;;;;5058449;28;20410;-73
2021/05/08 00:27:40;;;;;;;19.42;9.02;;;;;;;;;;5063954;28;20388;-73
2021/05/08 00:30:07;;;;;;;15.60;9.27;;;;;;;;;;5067128;28;20028;-73
2021/05/08 00:32:34;;;;;;;17.90;9.45;;;;;;;;;;5068756;28;20016;-73
2021/05/08 00:35:00;;;;;;;16.98;9.40;;;;;;;;;;5063056;28;20111;-73
2021/05/08 00:37:26;;;;;;;19.80;9.40;;;;;;;;;;5064516;28;20020;-73
2021/05/08 00:39:52;;;;;;;13.65;8.40;;;;;;;;;;5064801;28;20035;-73
2021/05/08 00:42:18;;;;;;;14.77;8.63;;;;;;;;;;5067694;28;20115;-73
2021/05/08 00:44:44;;;;;;;20.25;9.35;;;;;;;;;;5062196;28;20052;-73
2021/05/08 00:47:11;;;;;;;16.50;9.63;;;;;;;;;;5059597;28;20021;-73
2021/05/08 00:49:38;;;;;;;13.48;7.65;;;;;;;;;;5067516;28;20028;-74
2021/05/08 00:52:05;;;;;;;16.75;9.00;;;;;;;;;;5071268;28;20032;-74
2021/05/08 00:54:31;;;;;;;16.90;9.75;;;;;;;;;;5082976;28;20064;-74
2021/05/08 00:56:57;;;;;;;16.73;8.65;;;;;;;;;;5069052;28;20036;-74
2021/05/08 00:59:23;;;;;;;14.18;8.57;;;;;;;;;;5063472;28;20070;-74
2021/05/08 01:01:50;;;;;;;15.15;9.15;;;;;;;;;;5063468;28;20024;-74
2021/05/08 01:04:16;;;;;;;23.42;9.77;;;;;;;;;;5061779;28;20032;-73
2021/05/08 01:06:42;;;;;;;18.10;9.27;;;;;;;;;;5063785;28;20021;-74
2021/05/08 01:09:08;;;;;;;15.48;8.52;;;;;;;;;;5062812;28;20058;-74
2021/05/08 01:11:36;;;;;;;14.68;7.95;;;;;;;;;;5058782;28;20016;-74
2021/05/08 01:14:03;;;;;;;17.95;8.77;;;;;;;;;;5067884;28;20094;-73
2021/05/08 01:16:29;;;;;;;13.30;8.52;;;;;;;;;;5070680;28;20062;-73
2021/05/08 01:18:55;;;;;;;13.85;8.07;;;;;;;;;;5063297;28;20029;-74
2021/05/08 01:21:22;;;;;;;18.85;8.25;;;;;;;;;;5070751;28;20016;-74
2021/05/08 01:23:48;;;;;;;15.98;8.48;;;;;;;;;;5071383;28;20089;-74
2021/05/08 01:26:14;;;;;;;17.85;8.10;;;;;;;;;;5065409;28;20029;-73
2021/05/08 01:28:41;;;;;;;16.55;8.48;;;;;;;;;;5062937;28;20510;-74
2021/05/08 01:31:07;;;;;;;14.25;8.48;;;;;;;;;;5070093;28;20028;-73
2021/05/08 01:33:34;;;;;;;12.82;7.82;;;;;;;;;;5070497;28;20137;-74
2021/05/08 01:36:00;;;;;;;15.30;8.40;;;;;;;;;;5059667;28;20115;-73
2021/05/08 01:38:26;;;;;;;13.25;8.50;;;;;;;;;;5063137;28;20041;-74
2021/05/08 01:41:00;;;;;;;15.48;8.68;;;;;;;;;;5069776;28;20025;-74
2021/05/08 01:43:26;;;;;;;15.63;8.27;;;;;;;;;;5063496;28;20033;-74
2021/05/08 01:45:52;;;;;;;15.63;8.25;;;;;;;;;;5060265;28;20012;-73
2021/05/08 01:48:18;;;;;;;14.45;8.25;;;;;;;;;;5062170;28;20537;-73
2021/05/08 01:50:44;;;;;;;16.42;9.05;;;;;;;;;;5062967;28;20021;-73
2021/05/08 01:53:10;;;;;;;15.75;8.80;;;;;;;;;;5064042;28;20021;-73
2021/05/08 01:55:36;;;;;;;15.23;8.82;;;;;;;;;;5061829;28;20021;-73
2021/05/08 01:58:03;;;;;;;15.13;8.68;;;;;;;;;;5057679;28;20407;-74
2021/05/08 02:00:31;;;;;;;15.07;9.07;;;;;;;;;;5054924;28;20036;-74
2021/05/08 02:02:58;;;;;;;15.70;9.18;;;;;;;;;;5071327;28;20024;-73
2021/05/08 02:05:27;;;;;;;16.35;9.27;;;;;;;;;;5057609;28;20502;-74
2021/05/08 02:07:54;;;;;;;15.05;8.90;;;;;;;;;;5064877;28;20052;-73
2021/05/08 02:10:20;;;;;;;15.70;9.75;;;;;;;;;;5058764;28;20028;-73
2021/05/08 02:12:46;;;;;;;13.68;9.13;;;;;;;;;;5059820;28;20445;-73
2021/05/08 02:15:14;;;;;;;16.23;9.88;;;;;;;;;;5052596;28;20052;-73
2021/05/08 02:17:40;;;;;;;14.68;9.52;;;;;;;;;;5069073;28;20032;-74
2021/05/08 02:20:06;;;;;;;17.90;9.63;;;;;;;;;;5064969;28;20023;-74
2021/05/08 02:22:32;;;;;;;15.70;10.77;;;;;;;;;;5066420;28;20528;-74
2021/05/08 02:24:58;;;;;;;16.00;9.35;;;;;;;;;;5059098;28;20387;-73
2021/05/08 02:27:24;;;;;;;18.42;10.35;;;;;;;;;;5061293;28;20482;-73
2021/05/08 02:29:50;;;;;;;17.10;10.48;;;;;;;;;;5059658;28;20025;-73
2021/05/08 02:32:17;;;;;;;16.77;10.48;;;;;;;;;;5060898;28;20029;-74
2021/05/08 02:34:43;;;;;;;18.45;10.90;;;;;;;;;;5055012;28;20036;-73
2021/05/08 02:37:09;;;;;;;20.05;12.40;;;;;;;;;;5069945;28;20052;-74
2021/05/08 02:39:35;;;;;;;15.98;11.38;;;;;;;;;;5057267;28;20029;-73
2021/05/08 02:42:01;;;;;;;18.40;12.38;;;;;;;;;;5058240;28;20036;-72
2021/05/08 02:44:27;;;;;;;17.27;11.93;;;;;;;;;;5064111;28;20033;-73
2021/05/08 02:46:53;;;;;;;18.95;12.95;;;;;;;;;;5056986;28;20029;-74
2021/05/08 02:49:19;;;;;;;19.50;11.43;;;;;;;;;;5061686;28;20108;-73
2021/05/08 02:51:45;;;;;;;19.55;12.43;;;;;;;;;;5055558;28;20051;-74
2021/05/08 02:54:11;;;;;;;21.25;11.68;;;;;;;;;;5060149;28;20028;-74
2021/05/08 02:56:37;;;;;;;21.10;11.55;;;;;;;;;;5081425;28;20033;-73
2021/05/08 02:59:03;;;;;;;24.30;11.88;;;;;;;;;;5062763;28;20024;-73
2021/05/08 03:01:29;;;;;;;20.98;12.25;;;;;;;;;;5062091;28;21081;-73
2021/05/08 03:03:55;;;;;;;24.27;11.43;;;;;;;;;;5061220;28;20017;-72
2021/05/08 03:06:21;;;;;;;19.98;11.52;;;;;;;;;;5059524;28;20372;-73
2021/05/08 03:08:47;;;;;;;20.50;10.52;;;;;;;;;;5058406;28;20063;-74
2021/05/08 03:11:13;;;;;;;20.63;10.35;;;;;;;;;;5065251;28;20060;-73
2021/05/08 03:13:40;;;;;;;19.45;11.35;;;;;;;;;;5050578;28;20036;-73
2021/05/08 03:16:06;;;;;;;22.17;11.95;;;;;;;;;;5059197;28;20119;-73
2021/05/08 03:18:32;;;;;;;22.13;11.55;;;;;;;;;;5064837;28;20505;-72
2021/05/08 03:20:59;;;;;;;19.02;11.52;;;;;;;;;;5063423;28;20032;-74
2021/05/08 03:23:25;;;;;;;22.98;12.00;;;;;;;;;;5065775;28;20029;-74
2021/05/08 03:25:51;;;;;;;18.88;11.00;;;;;;;;;;5056913;28;20086;-73
2021/05/08 03:28:17;;;;;;;20.95;11.80;;;;;;;;;;5069958;28;20039;-73
2021/05/08 03:30:43;;;;;;;25.92;12.88;;;;;;;;;;5060937;28;20067;-73
2021/05/08 03:33:09;;;;;;;23.08;11.27;;;;;;;;;;5069060;28;20047;-73
2021/05/08 03:35:35;;;;;;;28.00;12.48;;;;;;;;;;5065408;28;20029;-73
2021/05/08 03:38:01;;;;;;;20.52;10.88;;;;;;;;;;5066846;28;20646;-73
2021/05/08 03:40:27;;;;;;;24.85;12.25;;;;;;;;;;5061328;28;20021;-74
2021/05/08 03:42:53;;;;;;;24.42;12.65;;;;;;;;;;5064024;28;20048;-73
2021/05/08 03:45:19;;;;;;;21.27;12.40;;;;;;;;;;5066097;28;20029;-73
2021/05/08 03:47:46;;;;;;;20.77;12.48;;;;;;;;;;5055727;28;20049;-73
2021/05/08 03:50:12;;;;;;;22.73;12.80;;;;;;;;;;5067226;28;20024;-73
2021/05/08 03:52:38;;;;;;;27.55;14.80;;;;;;;;;;5062644;28;20025;-73
2021/05/08 03:55:04;;;;;;;28.25;13.38;;;;;;;;;;5068489;28;20438;-73
2021/05/08 03:57:30;;;;;;;28.17;15.98;;;;;;;;;;5062187;28;20070;-74
2021/05/08 03:59:58;;;;;;;28.13;14.75;;;;;;;;;;5059912;28;20043;-74
2021/05/08 04:02:24;;;;;;;26.60;13.75;;;;;;;;;;5056944;28;20108;-74
2021/05/08 04:04:50;;;;;;;32.55;14.48;;;;;;;;;;5064399;28;20502;-73
2021/05/08 04:07:16;;;;;;;24.60;13.57;;;;;;;;;;5058173;28;20105;-73
2021/05/08 04:09:42;;;;;;;24.63;14.35;;;;;;;;;;5049812;28;20523;-73
2021/05/08 04:12:08;;;;;;;24.02;14.15;;;;;;;;;;5062803;28;20479;-73
2021/05/08 04:14:34;;;;;;;26.42;15.20;;;;;;;;;;5069331;28;20032;-74
2021/05/08 04:17:00;;;;;;;28.50;14.45;;;;;;;;;;5062275;28;20031;-73
2021/05/08 04:19:26;;;;;;;26.15;14.52;;;;;;;;;;5048094;28;20051;-74
2021/05/08 04:21:52;;;;;;;30.23;14.52;;;;;;;;;;5057435;28;20044;-74
2021/05/08 04:24:18;;;;;;;26.60;15.20;;;;;;;;;;5068706;28;20032;-73
2021/05/08 04:26:44;;;;;;;23.63;13.60;;;;;;;;;;5057638;28;20025;-73
2021/05/08 04:29:10;;;;;;;27.25;14.90;;;;;;;;;;5059432;28;20032;-73
2021/05/08 04:31:36;;;;;;;31.80;15.60;;;;;;;;;;5071827;28;20074;-73
2021/05/08 04:34:02;;;;;;;28.85;17.02;;;;;;;;;;5068368;28;20024;-73
2021/05/08 04:36:29;;;;;;;27.00;16.00;;;;;;;;;;5063622;28;20037;-73
2021/05/08 04:38:55;;;;;;;26.08;16.25;;;;;;;;;;5061698;28;20032;-73
2021/05/08 04:41:21;;;;;;;25.58;14.40;;;;;;;;;;5070927;28;20021;-73
2021/05/08 04:43:47;;;;;;;31.10;15.70;;;;;;;;;;5059853;28;20112;-73
2021/05/08 04:46:13;;;;;;;28.17;15.38;;;;;;;;;;5061356;28;20017;-73
2021/05/08 04:48:39;;;;;;;28.55;16.88;;;;;;;;;;5064116;28;20032;-73
2021/05/08 04:51:05;;;;;;;30.10;16.23;;;;;;;;;;5052892;28;20021;-73
2021/05/08 04:53:33;;;;;;;25.92;15.93;;;;;;;;;;5063785;28;20528;-73
2021/05/08 04:55:59;;;;;;;26.35;15.00;;;;;;;;;;5073270;28;20157;-73
2021/05/08 04:58:25;;;;;;;27.85;14.98;;;;;;;;;;5070904;28;20029;-73
2021/05/08 05:00:51;;;;;;;27.70;15.27;;;;;;;;;;5066791;28;20078;-73
2021/05/08 05:03:17;;;;;;;29.85;16.92;;;;;;;;;;5063002;28;20017;-72
2021/05/08 05:05:43;;;;;;;29.20;15.20;;;;;;;;;;5062181;28;20087;-73
2021/05/08 05:08:09;;;;;;;27.65;14.55;;;;;;;;;;5052628;28;20041;-73
2021/05/08 05:10:36;;;;;;;25.05;15.93;;;;;;;;;;5064524;28;20029;-72
2021/05/08 05:13:02;;;;;;;28.23;15.35;;;;;;;;;;5072032;28;20029;-73
2021/05/08 05:15:29;;;;;;;27.83;14.48;;;;;;;;;;5071814;28;20485;-73
2021/05/08 05:17:55;;;;;;;27.50;14.23;;;;;;;;;;5061106;28;20478;-73
2021/05/08 05:20:22;;;;;;;23.08;13.63;;;;;;;;;;5071219;28;20032;-73
2021/05/08 05:22:48;;;;;;;26.98;14.63;;;;;;;;;;5070685;28;20483;-73
2021/05/08 05:25:14;;;;;;;22.27;13.32;;;;;;;;;;5059861;28;20465;-73
2021/05/08 05:27:40;;;;;;;21.80;12.95;;;;;;;;;;5065821;28;20480;-73
2021/05/08 05:30:06;;;;;;;23.75;13.07;;;;;;;;;;5068687;28;20027;-72
2021/05/08 05:32:32;;;;;;;24.52;13.00;;;;;;;;;;5068782;28;20086;-72
2021/05/08 05:34:58;;;;;;;21.38;12.25;;;;;;;;;;5066424;28;20028;-72
2021/05/08 05:37:24;;;;;;;23.98;12.13;;;;;;;;;;5064617;28;20021;-72
2021/05/08 05:39:50;;;;;;;23.75;12.07;;;;;;;;;;5063901;28;20422;-73
2021/05/08 05:42:16;;;;;;;27.35;11.93;;;;;;;;;;5060071;28;20077;-73
2021/05/08 05:44:42;;;;;;;21.98;12.45;;;;;;;;;;5052029;28;20032;-73
2021/05/08 05:47:20;;;;;;;25.17;11.80;;;;;;;;;;5069735;28;20052;-73
2021/05/08 05:49:47;;;;;;;20.98;11.27;;;;;;;;;;5059479;28;20040;-72
2021/05/08 05:52:13;;;;;;;21.23;11.15;;;;;;;;;;5060833;28;20033;-72
2021/05/08 05:54:39;;;;;;;19.60;10.70;;;;;;;;;;5069576;28;20031;-73
2021/05/08 05:57:05;;;;;;;22.10;11.38;;;;;;;;;;5056430;28;20044;-73
2021/05/08 05:59:31;;;;;;;17.92;10.05;;;;;;;;;;5063250;28;20028;-71
2021/05/08 06:01:57;;;;;;;22.42;10.30;;;;;;;;;;5068726;28;20031;-73
2021/05/08 06:04:23;;;;;;;18.95;10.25;;;;;;;;;;5064611;28;20056;-70
2021/05/08 06:06:49;;;;;;;22.33;10.98;;;;;;;;;;5061414;28;20059;-72
2021/05/08 06:09:15;;;;;;;19.48;10.05;;;;;;;;;;5068920;28;20040;-73
2021/05/08 06:11:41;;;;;;;17.55;9.25;;;;;;;;;;5055176;28;20079;-71
2021/05/08 06:14:07;;;;;;;21.42;9.52;;;;;;;;;;5059575;28;20016;-72
2021/05/08 06:16:33;;;;;;;16.00;10.52;;;;;;;;;;5070039;28;20020;-71
2021/05/08 06:19:00;;;;;;;17.65;10.00;;;;;;;;;;5062762;28;20025;-73
2021/05/08 06:21:26;;;;;;;21.38;10.23;;;;;;;;;;5055649;28;20112;-71
2021/05/08 06:23:53;;;;;;;20.88;9.43;;;;;;;;;;5067520;28;20033;-71
2021/05/08 06:26:19;;;;;;;19.50;10.27;;;;;;;;;;5069018;28;20037;-71
2021/05/08 06:28:45;;;;;;;18.92;9.20;;;;;;;;;;5064490;28;20454;-70
2021/05/08 06:31:11;;;;;;;18.30;8.68;;;;;;;;;;5051468;28;20098;-71
2021/05/08 06:33:38;;;;;;;17.48;8.18;;;;;;;;;;5069522;28;20062;-69
2021/05/08 06:36:04;;;;;;;16.83;9.30;;;;;;;;;;5064047;28;20017;-71
2021/05/08 06:38:30;;;;;;;17.92;10.07;;;;;;;;;;5056070;28;20032;-70
2021/05/08 06:40:56;;;;;;;19.00;10.93;;;;;;;;;;5053814;28;20036;-71
2021/05/08 06:43:22;;;;;;;16.73;8.27;;;;;;;;;;5069714;28;20021;-71
2021/05/08 06:45:48;;;;;;;21.00;9.40;;;;;;;;;;5057265;28;20111;-71
2021/05/08 06:48:15;;;;;;;18.40;8.43;;;;;;;;;;5067986;28;20025;-71
2021/05/08 06:50:45;;;;;;;18.42;8.52;;;;;;;;;;5057595;28;20115;-71
2021/05/08 06:53:11;;;;;;;18.83;9.15;;;;;;;;;;5070276;28;20031;-71
2021/05/08 06:55:37;;;;;;;17.75;8.30;;;;;;;;;;5064167;28;20116;-71
2021/05/08 06:58:03;;;;;;;19.92;8.68;;;;;;;;;;5061777;28;20060;-71
2021/05/08 07:00:29;;;;;;;17.45;8.55;;;;;;;;;;5055632;28;20029;-71
2021/05/08 07:02:55;;;;;;;19.23;10.15;;;;;;;;;;5062677;28;20107;-71
2021/05/08 07:05:21;;;;;;;20.90;9.38;;;;;;;;;;5060191;28;20025;-71
2021/05/08 07:07:47;;;;;;;15.82;8.88;;;;;;;;;;5057360;28;20033;-71
2021/05/08 07:10:13;;;;;;;18.02;8.98;;;;;;;;;;5058508;28;20052;-72
2021/05/08 07:12:40;;;;;;;15.63;8.75;;;;;;;;;;5056272;28;20025;-70
2021/05/08 07:15:06;;;;;;;14.60;7.65;;;;;;;;;;5060487;28;20086;-72
2021/05/08 07:17:33;;;;;;;18.25;8.88;;;;;;;;;;5049197;28;20426;-72
2021/05/08 07:19:59;;;;;;;15.60;8.15;;;;;;;;;;5050280;28;20031;-72
2021/05/08 07:22:25;;;;;;;12.98;7.22;;;;;;;;;;5053348;28;20056;-71
2021/05/08 07:24:51;;;;;;;13.55;7.50;;;;;;;;;;5051891;28;20028;-73
2021/05/08 07:27:19;;;;;;;18.92;7.72;;;;;;;;;;5084400;28;20043;-72
2021/05/08 07:29:45;;;;;;;13.93;6.70;;;;;;;;;;5065441;28;20025;-72
2021/05/08 07:32:11;;;;;;;13.32;7.15;;;;;;;;;;5063549;28;20029;-73
2021/05/08 07:34:37;;;;;;;13.43;7.20;;;;;;;;;;5055568;28;20040;-69
2021/05/08 07:37:03;;;;;;;14.48;7.82;;;;;;;;;;5054436;28;20032;-71
2021/05/08 07:39:29;;;;;;;12.40;6.47;;;;;;;;;;5057395;28;20131;-70
2021/05/08 07:41:55;;;;;;;17.30;8.25;;;;;;;;;;5056473;28;20059;-70
2021/05/08 07:44:21;;;;;;;15.98;7.68;;;;;;;;;;5061427;28;20035;-71
2021/05/08 07:46:47;;;;;;;15.50;7.22;;;;;;;;;;5059197;28;20017;-71
2021/05/08 07:49:13;;;;;;;17.83;6.68;;;;;;;;;;5053762;28;20025;-70
2021/05/08 07:51:39;;;;;;;17.23;7.85;;;;;;;;;;5056326;28;20047;-72
2021/05/08 07:54:06;;;;;;;19.60;7.85;;;;;;;;;;5058918;28;20020;-71
2021/05/08 07:56:33;;;;;;;14.52;7.40;;;;;;;;;;5058349;28;20116;-70
2021/05/08 07:58:59;;;;;;;18.95;7.35;;;;;;;;;;5053511;28;20077;-70
2021/05/08 08:01:25;;;;;;;14.07;5.85;;;;;;;;;;5056687;28;20483;-68
2021/05/08 08:03:51;;;;;;;14.13;6.75;;;;;;;;;;5057532;28;20037;-70
2021/05/08 08:06:18;;;;;;;13.65;7.00;;;;;;;;;;5062131;28;20079;-69
2021/05/08 08:08:44;;;;;;;15.05;5.72;;;;;;;;;;5057652;28;20128;-69
2021/05/08 08:11:10;;;;;;;19.75;6.75;;;;;;;;;;5055263;28;20371;-68
2021/05/08 08:13:36;;;;;;;14.15;7.93;;;;;;;;;;5065481;28;20111;-68
2021/05/08 08:16:02;;;;;;;12.93;6.65;;;;;;;;;;5059615;28;20032;-69
2021/05/08 08:18:28;;;;;;;12.55;6.85;;;;;;;;;;5060216;28;20035;-70
2021/05/08 08:20:54;;;;;;;12.35;6.88;;;;;;;;;;5056111;28;20074;-70
2021/05/08 08:23:20;;;;;;;13.43;7.75;;;;;;;;;;5061019;28;20028;-69
2021/05/08 08:25:47;;;;;;;14.82;7.90;;;;;;;;;;5064212;28;20046;-69
2021/05/08 08:28:13;;;;;;;14.55;8.20;;;;;;;;;;5057977;28;20100;-69
2021/05/08 08:30:39;;;;;;;12.38;7.38;;;;;;;;;;5067098;28;20041;-68
2021/05/08 08:33:05;;;;;;;15.20;7.57;;;;;;;;;;5061446;28;20070;-68
2021/05/08 08:35:31;;;;;;;13.65;7.97;;;;;;;;;;5061267;28;20033;-67
2021/05/08 08:37:57;;;;;;;17.67;8.18;;;;;;;;;;5058811;28;20050;-68
2021/05/08 08:40:23;;;;;;;14.60;8.40;;;;;;;;;;5058934;28;20028;-67
2021/05/08 08:42:49;;;;;;;14.32;7.47;;;;;;;;;;5052818;28;20065;-68
2021/05/08 08:45:15;;;;;;;16.13;8.13;;;;;;;;;;5062017;28;20486;-67
2021/05/08 08:47:42;;;;;;;21.00;8.88;;;;;;;;;;5068782;28;20859;-66
2021/05/08 08:50:08;;;;;;;15.80;6.13;;;;;;;;;;5069419;28;20498;-67
2021/05/08 08:52:34;;;;;;;15.40;8.65;;;;;;;;;;5066383;28;20017;-67
2021/05/08 08:55:00;;;;;;;15.27;7.28;;;;;;;;;;5065735;28;20407;-68
2021/05/08 08:57:31;;;;;;;16.52;8.35;;;;;;;;;;5056887;28;20032;-68
2021/05/08 08:59:58;;;;;;;22.35;9.70;;;;;;;;;;5066452;28;20029;-68
2021/05/08 09:02:28;;;;;;;14.82;8.73;;;;;;;;;;5066643;28;20402;-67
2021/05/08 09:04:58;;;;;;;13.30;8.38;;;;;;;;;;5069283;28;20027;-67
2021/05/08 09:07:26;;;;;;;16.77;7.38;;;;;;;;;;5071094;28;20095;-66
2021/05/08 09:09:52;;;;;;;15.65;9.43;;;;;;;;;;5065973;28;20117;-67
2021/05/08 09:12:19;;;;;;;17.00;10.38;;;;;;;;;;5057998;28;20028;-66
2021/05/08 09:14:48;;;;;;;15.85;8.77;;;;;;;;;;5061791;28;20031;-66
2021/05/08 09:17:18;;;;;;;16.98;8.80;;;;;;;;;;5052368;28;20036;-66
2021/05/08 09:19:46;;;;;;;18.17;9.50;;;;;;;;;;5064817;28;20028;-65
2021/05/08 09:22:26;;;;;;;19.17;9.52;;;;;;;;;;5070677;28;20028;-66
2021/05/08 09:24:55;;;;;;;15.70;9.32;;;;;;;;;;5066295;28;20107;-66
2021/05/08 09:27:37;;;;;;;19.67;9.27;;;;;;;;;;5051954;28;20484;-66
2021/05/08 09:30:14;;;;;;;20.15;10.23;;;;;;;;;;5053091;28;20482;-66
2021/05/08 09:32:48;;;;;;;16.55;9.45;;;;;;;;;;5086610;22;20466;-86
2021/05/08 09:35:32;;;;;;;20.98;10.48;;;;;;;;;;5055066;28;20127;-87
2021/05/08 09:38:11;;;;;;;20.75;11.75;;;;;;;;;;5055225;28;20024;-87
2021/05/08 09:40:38;;;;;;;22.88;10.43;;;;;;;;;;5068112;28;20025;-84
2021/05/08 09:43:11;;;;;;;19.63;10.05;;;;;;;;;;5071837;28;20100;-85
2021/05/08 09:45:48;;;;;;;17.40;11.20;;;;;;;;;;5071619;28;20074;-86
2021/05/08 09:48:20;;;;;;;23.60;10.63;;;;;;;;;;5055865;28;20406;-91
2021/05/08 09:50:46;;;;;;;17.73;9.88;;;;;;;;;;5053478;28;20111;-91
2021/05/08 09:53:24;;;;;;;18.13;10.50;;;;;;;;;;5064752;28;20025;-87
2021/05/08 09:55:50;;;;;;;23.38;13.07;;;;;;;;;;5071661;28;20343;-86
2021/05/08 09:58:20;;;;;;;18.10;10.02;;;;;;;;;;5087519;22;20591;-64
2021/05/08 10:00:47;;;;;;;24.20;14.57;;;;;;;;;;5087636;28;20020;-64
2021/05/08 10:03:14;;;;;;;24.75;15.45;;;;;;;;;;5090009;28;20494;-65
2021/05/08 10:05:41;;;;;;;28.10;13.82;;;;;;;;;;5090335;28;20053;-65
2021/05/08 10:08:08;;;;;;;25.23;13.23;;;;;;;;;;5090092;28;20085;-66
2021/05/08 10:10:35;;;;;;;28.17;12.88;;;;;;;;;;5067171;28;20047;-64
2021/05/08 10:13:06;;;;;;;26.92;15.30;;;;;;;;;;5089972;28;20048;-64
2021/05/08 10:15:33;;;;;;;24.52;13.32;;;;;;;;;;5090494;28;20028;-65
2021/05/08 10:18:00;;;;;;;21.50;13.25;;;;;;;;;;5090579;28;20032;-65
2021/05/08 10:20:26;;;;;;;17.73;10.20;;;;;;;;;;5087126;28;20027;-65
2021/05/08 10:22:58;;;;;;;22.95;12.77;;;;;;;;;;5090568;28;20024;-65
2021/05/08 10:25:24;;;;;;;;;;;;;;;;;;5086428;28;20027;-64
2021/05/08 10:27:50;;;;;;;22.13;9.88;;;;;;;;;;5085535;28;19908;-65
2021/05/08 10:30:20;;;;;;;25.55;15.02;;;;;;;;;;5069133;28;20443;-64
2021/05/08 10:32:47;;;;;;;25.17;14.40;;;;;;;;;;5090468;28;20020;-65
2021/05/08 10:35:13;;;;;;;29.02;18.90;;;;;;;;;;5082265;28;20040;-65
2021/05/08 10:37:40;;;;;;;32.13;18.13;;;;;;;;;;5089790;28;20402;-64
2021/05/08 10:40:11;;;;;;;36.50;17.00;;;;;;;;;;5087801;28;20485;-65
2021/05/08 10:42:41;;;;;;;24.77;13.27;;;;;;;;;;5083168;28;20026;-65
2021/05/08 10:45:27;;;;;;;28.92;17.17;;;;;;;;;;5088224;28;20024;-64
2021/05/08 10:47:56;;;;;;;25.13;13.07;;;;;;;;;;5084176;28;20119;-65
2021/05/08 10:50:25;;;;;;;24.08;14.50;;;;;;;;;;5085198;28;20027;-65
2021/05/08 10:53:12;;;;;;;33.08;16.88;;;;;;;;;;5089520;28;20040;-64
2021/05/08 10:55:45;;;;;;;21.48;12.80;;;;;;;;;;5085649;28;21334;-65
2021/05/08 10:58:17;;;;;;;27.00;14.45;;;;;;;;;;5089395;28;20051;-65
2021/05/08 11:00:50;;;;;;;30.10;18.98;;;;;;;;;;5068552;28;20089;-65
2021/05/08 11:03:16;;;;;;;18.95;10.80;;;;;;;;;;5066135;28;20036;-66
2021/05/08 11:05:55;;;;;;;28.30;15.48;;;;;;;;;;5086519;28;20383;-66
2021/05/08 11:08:28;;;;;;;28.88;16.40;;;;;;;;;;5083521;28;20016;-66
2021/05/08 11:10:54;;;;;;;26.45;14.95;;;;;;;;;;5074548;28;20024;-66
2021/05/08 11:13:26;;;;;;;28.13;13.77;;;;;;;;;;5088262;28;20133;-66
2021/05/08 11:15:56;;;;;;;26.58;16.25;;;;;;;;;;5071409;28;20075;-66
2021/05/08 11:18:31;;;;;;;25.90;17.63;;;;;;;;;;5090495;28;20190;-66
2021/05/08 11:20:58;;;;;;;28.25;15.45;;;;;;;;;;5087794;28;20058;-66
2021/05/08 11:23:24;;;;;;;20.77;12.10;;;;;;;;;;5087584;28;20567;-66
2021/05/08 11:25:50;;;;;;;26.33;14.13;;;;;;;;;;5085884;28;20028;-66
2021/05/08 11:28:16;;;;;;;21.35;13.75;;;;;;;;;;5071137;28;20020;-65
2021/05/08 11:30:55;;;;;;;19.98;11.85;;;;;;;;;;5086672;28;20038;-65
2021/05/08 11:33:21;;;;;;;20.35;12.18;;;;;;;;;;5068280;28;20067;-67
2021/05/08 11:36:00;;;;;;;20.38;13.73;;;;;;;;;;5104807;28;20077;-65
2021/05/08 11:38:26;;;;;;;24.10;13.50;;;;;;;;;;5071966;28;20124;-65
2021/05/08 11:40:52;;;;;;;22.42;13.00;;;;;;;;;;5090831;28;20020;-65
2021/05/08 11:43:25;;;;;;;18.42;11.30;;;;;;;;;;5094406;28;20070;-65
2021/05/08 11:45:51;;;;;;;22.60;13.95;;;;;;;;;;5069773;28;20059;-64
2021/05/08 11:48:18;;;;;;;22.23;13.20;;;;;;;;;;5094465;28;20032;-64
2021/05/08 11:50:47;;;;;;;23.45;14.38;;;;;;;;;;5076182;28;20043;-65
2021/05/08 11:53:16;;;;;;;21.33;12.15;;;;;;;;;;5094467;28;20028;-64
2021/05/08 11:55:47;;;;;;;25.60;16.45;;;;;;;;;;5088570;28;20036;-64
2021/05/08 11:58:24;;;;;;;22.60;12.73;;;;;;;;;;5093558;28;20093;-66
2021/05/08 12:00:50;;;;;;;24.42;16.90;;;;;;;;;;5099312;28;20028;-64
2021/05/08 12:03:17;;;;;;;19.23;11.43;;;;;;;;;;5088208;28;20040;-67
2021/05/08 12:05:44;;;;;;;26.70;15.27;;;;;;;;;;5088821;28;20117;-65
2021/05/08 12:08:11;;;;;;;19.08;10.77;;;;;;;;;;5093264;28;20028;-65
2021/05/08 12:10:38;;;;;;;22.33;15.63;;;;;;;;;;5085606;28;20397;-64
2021/05/08 12:13:06;;;;;;;25.75;15.15;;;;;;;;;;5065526;28;20035;-64
2021/05/08 12:15:36;;;;;;;25.05;15.15;;;;;;;;;;5089539;28;20036;-67
2021/05/08 12:18:03;;;;;;;24.50;16.77;;;;;;;;;;5084756;28;20020;-64
2021/05/08 12:20:31;;;;;;;28.10;15.52;;;;;;;;;;5090563;28;20039;-64
2021/05/08 12:23:00;;;;;;;19.70;14.80;;;;;;;;;;5093001;28;20024;-64
2021/05/08 12:25:27;;;;;;;18.77;11.40;;;;;;;;;;5092207;28;20024;-67
2021/05/08 12:28:12;;;;;;;21.20;15.02;;;;;;;;;;5090189;28;20498;-65
2021/05/08 12:30:38;;;;;;;24.38;15.65;;;;;;;;;;5090188;28;20260;-64
2021/05/08 12:33:04;;;;;;;23.55;16.77;;;;;;;;;;5093117;28;20016;-64
2021/05/08 12:35:30;;;;;;;26.48;18.05;;;;;;;;;;5074769;28;20031;-65
2021/05/08 12:37:56;;;;;;;21.17;13.27;;;;;;;;;;5075248;28;20055;-65
2021/05/08 12:40:32;;;;;;;24.00;17.13;;;;;;;;;;5089758;28;20028;-64
2021/05/08 12:42:58;;;;;;;26.52;15.68;;;;;;;;;;5093234;28;20045;-67
2021/05/08 12:45:24;;;;;;;33.05;19.48;;;;;;;;;;5092693;28;20032;-64
2021/05/08 12:47:50;;;;;;;24.98;19.00;;;;;;;;;;5082152;28;20027;-67
2021/05/08 12:50:25;;;;;;;26.77;18.85;;;;;;;;;;5088987;28;20042;-65
2021/05/08 12:52:59;;;;;;;23.25;17.38;;;;;;;;;;5092990;28;20020;-64
2021/05/08 12:55:27;;;;;;;26.58;16.50;;;;;;;;;;5070446;28;20055;-68
2021/05/08 12:57:53;;;;;;;25.35;17.48;;;;;;;;;;5062543;28;20044;-65
2021/05/08 13:00:20;;;;;;;26.80;18.35;;;;;;;;;;5047699;28;20033;-66
2021/05/08 13:02:47;;;;;;;22.23;14.52;;;;;;;;;;5049623;28;20048;-64
2021/05/08 13:05:13;;;;;;;25.40;16.35;;;;;;;;;;5050635;28;20052;-65
2021/05/08 13:07:41;;;;;;;19.55;11.75;;;;;;;;;;5050887;28;20495;-65
2021/05/08 13:10:18;;;;;;;23.25;16.55;;;;;;;;;;5045835;28;20025;-66
2021/05/08 13:12:44;;;;;;;21.55;13.10;;;;;;;;;;5049707;28;20487;-66
2021/05/08 13:15:12;;;;;;;20.60;14.02;;;;;;;;;;5050620;28;20047;-67
2021/05/08 13:17:38;;;;;;;15.63;9.05;;;;;;;;;;5048063;28;20028;-67
2021/05/08 13:20:08;;;;;;;21.10;11.45;;;;;;;;;;5048317;28;20032;-67
2021/05/08 13:22:37;;;;;;;16.27;11.45;;;;;;;;;;5050454;28;20029;-67
2021/05/08 13:25:03;;;;;;;17.23;12.77;;;;;;;;;;5050616;28;20499;-67
2021/05/08 13:27:29;;;;;;;19.58;13.48;;;;;;;;;;5049678;28;20544;-66
2021/05/08 13:29:55;;;;;;;33.50;14.98;;;;;;;;;;5039943;28;20100;-65
2021/05/08 13:32:21;;;;;;;18.88;11.95;;;;;;;;;;5039704;28;20067;-66
2021/05/08 13:34:47;;;;;;;19.70;13.23;;;;;;;;;;5051518;28;20040;-66
2021/05/08 13:37:14;;;;;;;21.30;11.88;;;;;;;;;;5052030;28;20029;-67
2021/05/08 13:39:40;;;;;;;16.85;13.23;;;;;;;;;;5049276;28;20052;-68
2021/05/08 13:42:06;;;;;;;21.17;12.00;;;;;;;;;;5052060;28;20043;-66
2021/05/08 13:44:32;;;;;;;17.50;11.93;;;;;;;;;;5052148;28;20025;-66
2021/05/08 13:46:58;;;;;;;17.15;12.30;;;;;;;;;;5051327;28;20560;-66
2021/05/08 13:49:24;;;;;;;20.52;12.52;;;;;;;;;;5047847;28;20402;-67
2021/05/08 13:51:50;;;;;;;20.35;12.13;;;;;;;;;;5051630;28;20020;-68
2021/05/08 13:54:17;;;;;;;18.02;12.80;;;;;;;;;;5049852;28;20037;-67
2021/05/08 13:56:43;;;;;;;23.23;13.35;;;;;;;;;;5050914;28;20013;-67
2021/05/08 13:59:09;;;;;;;20.15;12.13;;;;;;;;;;5076174;28;20036;-67
2021/05/08 14:01:35;;;;;;;14.57;9.63;;;;;;;;;;5081660;28;20082;-66
2021/05/08 14:04:01;;;;;;;21.02;8.00;;;;;;;;;;5072956;28;20017;-65
2021/05/08 14:06:27;;;;;;;14.70;9.43;;;;;;;;;;5092920;28;20027;-68
2021/05/08 14:08:53;;;;;;;16.98;11.32;;;;;;;;;;5089289;28;20027;-67
2021/05/08 14:11:19;;;;;;;18.02;12.48;;;;;;;;;;5091655;28;20496;-68
2021/05/08 14:13:45;;;;;;;13.80;9.75;;;;;;;;;;5073324;28;20035;-64
2021/05/08 14:16:11;;;;;;;12.93;7.93;;;;;;;;;;5092051;28;20024;-68
2021/05/08 14:18:38;;;;;;;13.55;10.95;;;;;;;;;;5089435;28;20102;-68
2021/05/08 14:21:04;;;;;;;15.75;10.10;;;;;;;;;;5091092;28;20028;-68
2021/05/08 14:23:30;;;;;;;19.75;12.02;;;;;;;;;;5086937;28;20150;-67